sensor_id;sensor_type;location;lat;lon;timestamp;P1;durP1;ratioP1;P2;durP2;ratioP2
6763;SDS011;47432;0.000;0.000;2022-09-12T00:03:38;24.40;;;10.83;;
6763;SDS011;47432;0.000;0.000;2022-09-12T00:08:37;22.50;;;9.93;;
6763;SDS011;47432;0.000;0.000;2022-09-12T00:11:03;22.13;;;9.93;;
6763;SDS011;47432;0.000;0.000;2022-09-12T00:13:29;22.53;;;10.50;;
6763;SDS011;47432;0.000;0.000;2022-09-12T00:15:55;23.57;;;10.47;;
6763;SDS011;47432;0.000;0.000;2022-09-12T00:18:21;23.00;;;11.50;;
6763;SDS011;47432;0.000;0.000;2022-09-12T00:20:47;25.60;;;11.00;;
6763;SDS011;47432;0.000;0.000;2022-09-12T00:23:15;23.93;;;11.20;;
6763;SDS011;47432;0.000;0.000;2022-09-12T00:25:42;26.90;;;12.50;;
6763;SDS011;47432;0.000;0.000;2022-09-12T00:28:08;21.77;;;10.47;;
6763;SDS011;47432;0.000;0.000;2022-09-12T00:30:38;22.93;;;11.07;;
6763;SDS011;47432;0.000;0.000;2022-09-12T00:33:08;23.90;;;10.80;;
6763;SDS011;47432;0.000;0.000;2022-09-12T00:35:40;25.13;;;11.27;;
6763;SDS011;47432;0.000;0.000;2022-09-12T00:38:06;25.47;;;10.50;;
6763;SDS011;47432;0.000;0.000;2022-09-12T00:40:32;29.23;;;13.07;;
6763;SDS011;47432;0.000;0.000;2022-09-12T00:43:00;21.90;;;10.07;;
6763;SDS011;47432;0.000;0.000;2022-09-12T00:45:27;25.40;;;10.53;;
6763;SDS011;47432;0.000;0.000;2022-09-12T00:47:54;21.70;;;9.73;;
6763;SDS011;47432;0.000;0.000;2022-09-12T00:50:20;23.60;;;10.60;;
6763;SDS011;47432;0.000;0.000;2022-09-12T00:52:50;25.53;;;11.33;;
6763;SDS011;47432;0.000;0.000;2022-09-12T01:00:44;28.07;;;12.03;;
6763;SDS011;47432;0.000;0.000;2022-09-12T01:03:11;30.57;;;12.70;;
6763;SDS011;47432;0.000;0.000;2022-09-12T01:05:40;26.73;;;12.30;;
6763;SDS011;47432;0.000;0.000;2022-09-12T01:08:10;26.20;;;10.80;;
6763;SDS011;47432;0.000;0.000;2022-09-12T01:10:37;24.27;;;11.00;;
6763;SDS011;47432;0.000;0.000;2022-09-12T01:13:04;24.93;;;11.50;;
6763;SDS011;47432;0.000;0.000;2022-09-12T01:15:30;25.73;;;11.50;;
6763;SDS011;47432;0.000;0.000;2022-09-12T01:18:18;26.67;;;11.50;;
6763;SDS011;47432;0.000;0.000;2022-09-12T01:20:49;24.40;;;10.13;;
6763;SDS011;47432;0.000;0.000;2022-09-12T01:34:09;26.73;;;11.13;;
6763;SDS011;47432;0.000;0.000;2022-09-12T01:36:40;25.40;;;11.07;;
6763;SDS011;47432;0.000;0.000;2022-09-12T01:46:58;27.37;;;11.83;;
6763;SDS011;47432;0.000;0.000;2022-09-12T01:49:35;27.33;;;11.37;;
6763;SDS011;47432;0.000;0.000;2022-09-12T01:52:08;23.43;;;10.50;;
6763;SDS011;47432;0.000;0.000;2022-09-12T01:57:14;27.77;;;12.53;;
6763;SDS011;47432;0.000;0.000;2022-09-12T02:00:03;28.33;;;12.00;;
6763;SDS011;47432;0.000;0.000;2022-09-12T02:02:34;26.20;;;11.63;;
6763;SDS011;47432;0.000;0.000;2022-09-12T02:07:37;26.43;;;11.47;;
6763;SDS011;47432;0.000;0.000;2022-09-12T02:10:08;27.60;;;12.13;;
6763;SDS011;47432;0.000;0.000;2022-09-12T02:12:58;28.57;;;13.20;;
6763;SDS011;47432;0.000;0.000;2022-09-12T02:15:22;29.87;;;14.37;;
6763;SDS011;47432;0.000;0.000;2022-09-12T02:17:51;28.07;;;13.63;;
6763;SDS011;47432;0.000;0.000;2022-09-12T02:20:19;34.40;;;15.20;;
6763;SDS011;47432;0.000;0.000;2022-09-12T02:22:47;29.17;;;13.70;;
6763;SDS011;47432;0.000;0.000;2022-09-12T02:25:15;31.80;;;14.97;;
6763;SDS011;47432;0.000;0.000;2022-09-12T02:27:43;31.00;;;14.20;;
6763;SDS011;47432;0.000;0.000;2022-09-12T02:30:11;29.40;;;13.77;;
6763;SDS011;47432;0.000;0.000;2022-09-12T02:35:18;30.67;;;14.47;;
6763;SDS011;47432;0.000;0.000;2022-09-12T02:40:13;33.90;;;15.37;;
6763;SDS011;47432;0.000;0.000;2022-09-12T02:42:39;35.57;;;15.57;;
6763;SDS011;47432;0.000;0.000;2022-09-12T02:45:05;31.57;;;13.97;;
6763;SDS011;47432;0.000;0.000;2022-09-12T02:47:39;32.47;;;15.00;;
6763;SDS011;47432;0.000;0.000;2022-09-12T02:50:06;32.03;;;14.70;;
6763;SDS011;47432;0.000;0.000;2022-09-12T02:52:32;27.73;;;13.47;;
6763;SDS011;47432;0.000;0.000;2022-09-12T02:54:58;36.57;;;15.40;;
6763;SDS011;47432;0.000;0.000;2022-09-12T02:57:24;33.40;;;14.30;;
6763;SDS011;47432;0.000;0.000;2022-09-12T02:59:52;28.20;;;13.33;;
6763;SDS011;47432;0.000;0.000;2022-09-12T03:02:31;30.17;;;12.93;;
6763;SDS011;47432;0.000;0.000;2022-09-12T03:05:07;33.10;;;14.43;;
6763;SDS011;47432;0.000;0.000;2022-09-12T03:07:53;31.10;;;13.20;;
6763;SDS011;47432;0.000;0.000;2022-09-12T03:10:25;32.10;;;14.10;;
6763;SDS011;47432;0.000;0.000;2022-09-12T03:18:04;35.33;;;15.67;;
6763;SDS011;47432;0.000;0.000;2022-09-12T03:23:10;32.30;;;14.50;;
6763;SDS011;47432;0.000;0.000;2022-09-12T03:25:43;30.77;;;13.03;;
6763;SDS011;47432;0.000;0.000;2022-09-12T03:28:13;31.73;;;14.00;;
6763;SDS011;47432;0.000;0.000;2022-09-12T03:30:47;29.23;;;13.67;;
6763;SDS011;47432;0.000;0.000;2022-09-12T03:33:16;33.87;;;15.00;;
6763;SDS011;47432;0.000;0.000;2022-09-12T03:35:44;29.93;;;12.30;;
6763;SDS011;47432;0.000;0.000;2022-09-12T03:38:11;31.13;;;13.87;;
6763;SDS011;47432;0.000;0.000;2022-09-12T03:40:37;28.27;;;12.53;;
6763;SDS011;47432;0.000;0.000;2022-09-12T03:43:03;30.57;;;13.90;;
6763;SDS011;47432;0.000;0.000;2022-09-12T03:45:32;29.03;;;12.90;;
6763;SDS011;47432;0.000;0.000;2022-09-12T03:48:00;33.57;;;15.40;;
6763;SDS011;47432;0.000;0.000;2022-09-12T03:50:26;28.90;;;12.90;;
6763;SDS011;47432;0.000;0.000;2022-09-12T03:52:52;29.10;;;13.70;;
6763;SDS011;47432;0.000;0.000;2022-09-12T03:55:18;28.33;;;13.20;;
6763;SDS011;47432;0.000;0.000;2022-09-12T03:57:44;27.80;;;12.83;;
6763;SDS011;47432;0.000;0.000;2022-09-12T04:00:10;30.73;;;13.30;;
6763;SDS011;47432;0.000;0.000;2022-09-12T04:02:36;29.43;;;13.50;;
6763;SDS011;47432;0.000;0.000;2022-09-12T04:05:02;29.23;;;13.00;;
6763;SDS011;47432;0.000;0.000;2022-09-12T04:07:31;32.23;;;15.30;;
6763;SDS011;47432;0.000;0.000;2022-09-12T04:09:57;28.27;;;13.53;;
6763;SDS011;47432;0.000;0.000;2022-09-12T04:12:23;34.07;;;14.67;;
6763;SDS011;47432;0.000;0.000;2022-09-12T04:14:51;29.30;;;12.77;;
6763;SDS011;47432;0.000;0.000;2022-09-12T04:17:16;33.70;;;15.20;;
6763;SDS011;47432;0.000;0.000;2022-09-12T04:19:45;30.20;;;12.93;;
6763;SDS011;47432;0.000;0.000;2022-09-12T04:22:11;29.03;;;13.87;;
6763;SDS011;47432;0.000;0.000;2022-09-12T04:24:37;31.43;;;13.63;;
6763;SDS011;47432;0.000;0.000;2022-09-12T04:27:03;34.10;;;14.87;;
6763;SDS011;47432;0.000;0.000;2022-09-12T04:29:29;32.40;;;14.30;;
6763;SDS011;47432;0.000;0.000;2022-09-12T04:31:55;29.50;;;13.77;;
6763;SDS011;47432;0.000;0.000;2022-09-12T04:34:21;28.87;;;13.47;;
6763;SDS011;47432;0.000;0.000;2022-09-12T04:36:47;30.27;;;12.13;;
6763;SDS011;47432;0.000;0.000;2022-09-12T04:39:13;53.53;;;21.03;;
6763;SDS011;47432;0.000;0.000;2022-09-12T04:41:40;34.47;;;14.80;;
6763;SDS011;47432;0.000;0.000;2022-09-12T04:44:07;32.40;;;13.77;;
6763;SDS011;47432;0.000;0.000;2022-09-12T04:46:36;26.63;;;11.37;;
6763;SDS011;47432;0.000;0.000;2022-09-12T04:49:05;34.10;;;14.03;;
6763;SDS011;47432;0.000;0.000;2022-09-12T04:51:32;29.80;;;14.07;;
6763;SDS011;47432;0.000;0.000;2022-09-12T04:54:00;30.97;;;14.70;;
6763;SDS011;47432;0.000;0.000;2022-09-12T04:56:26;26.23;;;12.50;;
6763;SDS011;47432;0.000;0.000;2022-09-12T04:58:55;32.33;;;14.30;;
6763;SDS011;47432;0.000;0.000;2022-09-12T05:01:22;29.70;;;13.57;;
6763;SDS011;47432;0.000;0.000;2022-09-12T05:03:48;27.10;;;12.77;;
6763;SDS011;47432;0.000;0.000;2022-09-12T05:06:18;26.87;;;11.63;;
6763;SDS011;47432;0.000;0.000;2022-09-12T05:08:44;28.10;;;13.23;;
6763;SDS011;47432;0.000;0.000;2022-09-12T05:11:14;25.83;;;13.00;;
6763;SDS011;47432;0.000;0.000;2022-09-12T05:13:41;26.97;;;12.20;;
6763;SDS011;47432;0.000;0.000;2022-09-12T05:16:08;28.10;;;13.37;;
6763;SDS011;47432;0.000;0.000;2022-09-12T05:18:37;29.20;;;12.63;;
6763;SDS011;47432;0.000;0.000;2022-09-12T05:21:06;26.87;;;12.90;;
6763;SDS011;47432;0.000;0.000;2022-09-12T05:23:35;25.93;;;13.20;;
6763;SDS011;47432;0.000;0.000;2022-09-12T05:26:02;25.47;;;13.40;;
6763;SDS011;47432;0.000;0.000;2022-09-12T05:28:33;32.60;;;14.50;;
6763;SDS011;47432;0.000;0.000;2022-09-12T05:31:15;28.00;;;14.10;;
6763;SDS011;47432;0.000;0.000;2022-09-12T05:33:49;26.40;;;13.63;;
6763;SDS011;47432;0.000;0.000;2022-09-12T05:36:16;27.00;;;13.37;;
6763;SDS011;47432;0.000;0.000;2022-09-12T05:38:43;28.07;;;14.10;;
6763;SDS011;47432;0.000;0.000;2022-09-12T05:43:38;27.90;;;14.07;;
6763;SDS011;47432;0.000;0.000;2022-09-12T05:46:10;26.17;;;12.57;;
6763;SDS011;47432;0.000;0.000;2022-09-12T05:48:37;27.73;;;14.10;;
6763;SDS011;47432;0.000;0.000;2022-09-12T05:51:05;28.20;;;13.63;;
6763;SDS011;47432;0.000;0.000;2022-09-12T05:53:32;28.57;;;13.87;;
6763;SDS011;47432;0.000;0.000;2022-09-12T05:56:12;28.70;;;13.97;;
6763;SDS011;47432;0.000;0.000;2022-09-12T05:58:40;24.83;;;11.40;;
6763;SDS011;47432;0.000;0.000;2022-09-12T06:01:07;27.53;;;12.97;;
6763;SDS011;47432;0.000;0.000;2022-09-12T06:03:44;25.73;;;12.87;;
6763;SDS011;47432;0.000;0.000;2022-09-12T06:06:14;27.50;;;14.37;;
6763;SDS011;47432;0.000;0.000;2022-09-12T06:08:43;29.70;;;13.93;;
6763;SDS011;47432;0.000;0.000;2022-09-12T06:11:11;26.30;;;12.90;;
6763;SDS011;47432;0.000;0.000;2022-09-12T06:13:39;27.40;;;13.80;;
6763;SDS011;47432;0.000;0.000;2022-09-12T06:16:07;25.90;;;12.97;;
6763;SDS011;47432;0.000;0.000;2022-09-12T06:18:33;26.70;;;13.47;;
6763;SDS011;47432;0.000;0.000;2022-09-12T06:21:03;26.37;;;13.40;;
6763;SDS011;47432;0.000;0.000;2022-09-12T06:23:29;28.60;;;14.50;;
6763;SDS011;47432;0.000;0.000;2022-09-12T06:25:55;25.13;;;11.87;;
6763;SDS011;47432;0.000;0.000;2022-09-12T06:28:21;24.07;;;11.83;;
6763;SDS011;47432;0.000;0.000;2022-09-12T06:30:47;24.27;;;12.70;;
6763;SDS011;47432;0.000;0.000;2022-09-12T06:33:14;25.13;;;12.27;;
6763;SDS011;47432;0.000;0.000;2022-09-12T06:35:42;28.60;;;12.77;;
6763;SDS011;47432;0.000;0.000;2022-09-12T06:38:08;25.30;;;13.00;;
6763;SDS011;47432;0.000;0.000;2022-09-12T06:40:39;23.50;;;11.77;;
6763;SDS011;47432;0.000;0.000;2022-09-12T06:43:06;25.10;;;11.90;;
6763;SDS011;47432;0.000;0.000;2022-09-12T06:45:32;25.50;;;12.37;;
6763;SDS011;47432;0.000;0.000;2022-09-12T06:47:58;28.17;;;13.10;;
6763;SDS011;47432;0.000;0.000;2022-09-12T06:50:24;26.27;;;12.47;;
6763;SDS011;47432;0.000;0.000;2022-09-12T06:52:50;30.90;;;13.23;;
6763;SDS011;47432;0.000;0.000;2022-09-12T06:55:16;29.27;;;14.50;;
6763;SDS011;47432;0.000;0.000;2022-09-12T06:57:42;29.03;;;13.80;;
6763;SDS011;47432;0.000;0.000;2022-09-12T07:00:08;30.33;;;16.50;;
6763;SDS011;47432;0.000;0.000;2022-09-12T07:02:34;28.13;;;14.30;;
6763;SDS011;47432;0.000;0.000;2022-09-12T07:05:00;27.37;;;14.03;;
6763;SDS011;47432;0.000;0.000;2022-09-12T07:07:28;30.10;;;15.37;;
6763;SDS011;47432;0.000;0.000;2022-09-12T07:09:58;29.97;;;16.47;;
6763;SDS011;47432;0.000;0.000;2022-09-12T07:12:24;28.00;;;15.07;;
6763;SDS011;47432;0.000;0.000;2022-09-12T07:14:52;27.93;;;15.57;;
6763;SDS011;47432;0.000;0.000;2022-09-12T07:17:18;27.13;;;13.93;;
6763;SDS011;47432;0.000;0.000;2022-09-12T07:19:44;27.47;;;14.77;;
6763;SDS011;47432;0.000;0.000;2022-09-12T07:22:10;29.30;;;13.63;;
6763;SDS011;47432;0.000;0.000;2022-09-12T07:24:36;27.83;;;14.00;;
6763;SDS011;47432;0.000;0.000;2022-09-12T07:27:02;28.10;;;14.17;;
6763;SDS011;47432;0.000;0.000;2022-09-12T07:29:28;30.00;;;14.77;;
6763;SDS011;47432;0.000;0.000;2022-09-12T07:31:56;24.70;;;12.40;;
6763;SDS011;47432;0.000;0.000;2022-09-12T07:34:23;25.43;;;12.20;;
6763;SDS011;47432;0.000;0.000;2022-09-12T07:36:49;20.40;;;10.93;;
6763;SDS011;47432;0.000;0.000;2022-09-12T07:39:15;22.30;;;12.00;;
6763;SDS011;47432;0.000;0.000;2022-09-12T07:41:44;22.43;;;11.47;;
6763;SDS011;47432;0.000;0.000;2022-09-12T07:44:10;24.33;;;11.83;;
6763;SDS011;47432;0.000;0.000;2022-09-12T07:46:36;21.23;;;10.10;;
6763;SDS011;47432;0.000;0.000;2022-09-12T07:49:04;21.70;;;10.23;;
6763;SDS011;47432;0.000;0.000;2022-09-12T07:51:29;21.10;;;10.23;;
6763;SDS011;47432;0.000;0.000;2022-09-12T07:53:58;20.17;;;9.00;;
6763;SDS011;47432;0.000;0.000;2022-09-12T07:56:25;20.00;;;8.87;;
6763;SDS011;47432;0.000;0.000;2022-09-12T07:58:52;22.63;;;10.73;;
6763;SDS011;47432;0.000;0.000;2022-09-12T08:01:20;18.93;;;9.40;;
6763;SDS011;47432;0.000;0.000;2022-09-12T08:03:52;18.27;;;8.77;;
6763;SDS011;47432;0.000;0.000;2022-09-12T08:06:19;20.60;;;9.10;;
6763;SDS011;47432;0.000;0.000;2022-09-12T08:08:50;20.80;;;8.70;;
6763;SDS011;47432;0.000;0.000;2022-09-12T08:11:18;19.40;;;9.63;;
6763;SDS011;47432;0.000;0.000;2022-09-12T08:13:47;24.20;;;12.13;;
6763;SDS011;47432;0.000;0.000;2022-09-12T08:16:15;21.97;;;9.33;;
6763;SDS011;47432;0.000;0.000;2022-09-12T08:18:45;23.03;;;10.57;;
6763;SDS011;47432;0.000;0.000;2022-09-12T08:21:17;20.90;;;10.40;;
6763;SDS011;47432;0.000;0.000;2022-09-12T08:23:43;18.07;;;8.60;;
6763;SDS011;47432;0.000;0.000;2022-09-12T08:26:10;18.80;;;9.30;;
6763;SDS011;47432;0.000;0.000;2022-09-12T08:28:39;17.67;;;8.97;;
6763;SDS011;47432;0.000;0.000;2022-09-12T08:31:06;18.80;;;9.80;;
6763;SDS011;47432;0.000;0.000;2022-09-12T08:33:32;23.00;;;10.37;;
6763;SDS011;47432;0.000;0.000;2022-09-12T08:36:05;22.07;;;10.60;;
6763;SDS011;47432;0.000;0.000;2022-09-12T08:38:32;22.33;;;9.60;;
6763;SDS011;47432;0.000;0.000;2022-09-12T08:41:22;18.10;;;9.40;;
6763;SDS011;47432;0.000;0.000;2022-09-12T08:46:35;19.13;;;8.47;;
6763;SDS011;47432;0.000;0.000;2022-09-12T08:49:02;21.40;;;9.23;;
6763;SDS011;47432;0.000;0.000;2022-09-12T08:51:33;16.47;;;8.53;;
6763;SDS011;47432;0.000;0.000;2022-09-12T08:53:59;18.80;;;9.87;;
6763;SDS011;47432;0.000;0.000;2022-09-12T08:56:27;14.20;;;7.80;;
6763;SDS011;47432;0.000;0.000;2022-09-12T08:58:54;22.10;;;9.30;;
6763;SDS011;47432;0.000;0.000;2022-09-12T09:01:26;20.73;;;8.10;;
6763;SDS011;47432;0.000;0.000;2022-09-12T09:04:03;17.17;;;7.80;;
6763;SDS011;47432;0.000;0.000;2022-09-12T09:09:14;16.30;;;8.23;;
6763;SDS011;47432;0.000;0.000;2022-09-12T09:11:48;13.77;;;6.20;;
6763;SDS011;47432;0.000;0.000;2022-09-12T09:17:23;15.73;;;6.40;;
6763;SDS011;47432;0.000;0.000;2022-09-12T09:20:26;11.40;;;4.90;;
6763;SDS011;47432;0.000;0.000;2022-09-12T09:22:44;11.03;;;4.77;;
6763;SDS011;47432;0.000;0.000;2022-09-12T09:25:14;11.70;;;4.40;;
6763;SDS011;47432;0.000;0.000;2022-09-12T09:27:44;11.50;;;4.07;;
6763;SDS011;47432;0.000;0.000;2022-09-12T09:30:15;10.87;;;4.07;;
6763;SDS011;47432;0.000;0.000;2022-09-12T09:32:42;12.10;;;4.47;;
6763;SDS011;47432;0.000;0.000;2022-09-12T09:35:12;10.00;;;3.63;;
6763;SDS011;47432;0.000;0.000;2022-09-12T09:37:41;11.43;;;4.17;;
6763;SDS011;47432;0.000;0.000;2022-09-12T09:45:18;11.67;;;4.43;;
6763;SDS011;47432;0.000;0.000;2022-09-12T09:48:28;10.13;;;3.90;;
6763;SDS011;47432;0.000;0.000;2022-09-12T09:50:35;11.00;;;4.30;;
6763;SDS011;47432;0.000;0.000;2022-09-12T09:53:01;11.97;;;4.93;;
6763;SDS011;47432;0.000;0.000;2022-09-12T09:55:31;12.00;;;4.13;;
6763;SDS011;47432;0.000;0.000;2022-09-12T09:57:59;9.60;;;3.43;;
6763;SDS011;47432;0.000;0.000;2022-09-12T10:00:29;11.00;;;4.40;;
6763;SDS011;47432;0.000;0.000;2022-09-12T10:03:16;11.27;;;4.10;;
6763;SDS011;47432;0.000;0.000;2022-09-12T10:05:51;10.20;;;3.73;;
6763;SDS011;47432;0.000;0.000;2022-09-12T10:08:21;10.90;;;3.73;;
6763;SDS011;47432;0.000;0.000;2022-09-12T10:10:59;11.73;;;4.10;;
6763;SDS011;47432;0.000;0.000;2022-09-12T10:16:02;12.03;;;3.70;;
6763;SDS011;47432;0.000;0.000;2022-09-12T10:18:37;12.57;;;4.40;;
6763;SDS011;47432;0.000;0.000;2022-09-12T10:21:11;11.33;;;3.73;;
6763;SDS011;47432;0.000;0.000;2022-09-12T10:23:43;12.43;;;4.20;;
6763;SDS011;47432;0.000;0.000;2022-09-12T10:26:11;11.27;;;3.80;;
6763;SDS011;47432;0.000;0.000;2022-09-12T10:28:39;10.60;;;3.30;;
6763;SDS011;47432;0.000;0.000;2022-09-12T10:31:16;9.83;;;3.30;;
6763;SDS011;47432;0.000;0.000;2022-09-12T10:33:53;10.13;;;3.33;;
6763;SDS011;47432;0.000;0.000;2022-09-12T10:36:20;11.40;;;3.80;;
6763;SDS011;47432;0.000;0.000;2022-09-12T10:38:48;11.20;;;3.73;;
6763;SDS011;47432;0.000;0.000;2022-09-12T10:41:15;14.40;;;4.93;;
6763;SDS011;47432;0.000;0.000;2022-09-12T10:43:41;11.30;;;3.83;;
6763;SDS011;47432;0.000;0.000;2022-09-12T10:48:39;12.00;;;3.90;;
6763;SDS011;47432;0.000;0.000;2022-09-12T10:51:11;12.77;;;4.17;;
6763;SDS011;47432;0.000;0.000;2022-09-12T10:53:40;10.00;;;3.57;;
6763;SDS011;47432;0.000;0.000;2022-09-12T10:56:15;10.77;;;3.33;;
6763;SDS011;47432;0.000;0.000;2022-09-12T11:09:32;11.40;;;3.97;;
6763;SDS011;47432;0.000;0.000;2022-09-12T11:12:05;10.13;;;3.63;;
6763;SDS011;47432;0.000;0.000;2022-09-12T11:17:13;9.77;;;3.23;;
6763;SDS011;47432;0.000;0.000;2022-09-12T11:25:26;10.23;;;3.20;;
6763;SDS011;47432;0.000;0.000;2022-09-12T11:27:58;10.00;;;3.07;;
6763;SDS011;47432;0.000;0.000;2022-09-12T11:30:27;9.30;;;2.70;;
6763;SDS011;47432;0.000;0.000;2022-09-12T11:33:21;14.47;;;3.40;;
6763;SDS011;47432;0.000;0.000;2022-09-12T11:35:51;9.77;;;2.90;;
6763;SDS011;47432;0.000;0.000;2022-09-12T11:41:16;10.27;;;3.10;;
6763;SDS011;47432;0.000;0.000;2022-09-12T11:46:24;11.03;;;3.40;;
6763;SDS011;47432;0.000;0.000;2022-09-12T11:51:37;11.57;;;3.93;;
6763;SDS011;47432;0.000;0.000;2022-09-12T11:54:12;11.10;;;3.50;;
6763;SDS011;47432;0.000;0.000;2022-09-12T11:56:51;10.53;;;3.40;;
6763;SDS011;47432;0.000;0.000;2022-09-12T12:02:18;10.97;;;3.33;;
6763;SDS011;47432;0.000;0.000;2022-09-12T12:05:05;9.27;;;2.60;;
6763;SDS011;47432;0.000;0.000;2022-09-12T12:07:37;12.30;;;3.57;;
6763;SDS011;47432;0.000;0.000;2022-09-12T12:10:06;10.67;;;3.00;;
6763;SDS011;47432;0.000;0.000;2022-09-12T12:12:45;9.00;;;2.50;;
6763;SDS011;47432;0.000;0.000;2022-09-12T12:15:14;8.90;;;2.30;;
6763;SDS011;47432;0.000;0.000;2022-09-12T12:17:43;9.97;;;2.97;;
6763;SDS011;47432;0.000;0.000;2022-09-12T12:20:25;9.47;;;2.53;;
6763;SDS011;47432;0.000;0.000;2022-09-12T12:22:52;9.57;;;2.93;;
6763;SDS011;47432;0.000;0.000;2022-09-12T12:28:11;9.27;;;2.40;;
6763;SDS011;47432;0.000;0.000;2022-09-12T12:31:14;9.43;;;2.70;;
6763;SDS011;47432;0.000;0.000;2022-09-12T12:41:56;9.63;;;2.70;;
6763;SDS011;47432;0.000;0.000;2022-09-12T12:47:13;10.80;;;3.20;;
6763;SDS011;47432;0.000;0.000;2022-09-12T12:50:00;11.10;;;3.13;;
6763;SDS011;47432;0.000;0.000;2022-09-12T12:52:28;13.60;;;4.10;;
6763;SDS011;47432;0.000;0.000;2022-09-12T12:54:57;10.87;;;3.03;;
6763;SDS011;47432;0.000;0.000;2022-09-12T13:16:03;16.33;;;5.20;;
6763;SDS011;47432;0.000;0.000;2022-09-12T13:18:32;12.83;;;3.57;;
6763;SDS011;47432;0.000;0.000;2022-09-12T13:21:14;11.43;;;2.90;;
6763;SDS011;47432;0.000;0.000;2022-09-12T13:23:40;10.03;;;2.50;;
6763;SDS011;47432;0.000;0.000;2022-09-12T13:26:13;10.27;;;2.63;;
6763;SDS011;47432;0.000;0.000;2022-09-12T13:29:07;10.73;;;2.50;;
6763;SDS011;47432;0.000;0.000;2022-09-12T13:31:44;9.73;;;2.27;;
6763;SDS011;47432;0.000;0.000;2022-09-12T13:34:30;9.83;;;2.43;;
6763;SDS011;47432;0.000;0.000;2022-09-12T13:39:45;11.40;;;3.10;;
6763;SDS011;47432;0.000;0.000;2022-09-12T13:45:06;9.57;;;2.13;;
6763;SDS011;47432;0.000;0.000;2022-09-12T13:47:59;10.30;;;2.47;;
6763;SDS011;47432;0.000;0.000;2022-09-12T13:50:32;10.30;;;2.30;;
6763;SDS011;47432;0.000;0.000;2022-09-12T13:53:07;10.37;;;2.57;;
6763;SDS011;47432;0.000;0.000;2022-09-12T13:55:39;9.53;;;2.30;;
6763;SDS011;47432;0.000;0.000;2022-09-12T13:58:16;9.73;;;2.33;;
6763;SDS011;47432;0.000;0.000;2022-09-12T14:03:39;8.73;;;1.80;;
6763;SDS011;47432;0.000;0.000;2022-09-12T14:06:25;11.00;;;2.50;;
6763;SDS011;47432;0.000;0.000;2022-09-12T14:08:54;11.13;;;2.60;;
6763;SDS011;47432;0.000;0.000;2022-09-12T14:11:28;11.67;;;2.70;;
6763;SDS011;47432;0.000;0.000;2022-09-12T14:13:57;11.10;;;2.73;;
6763;SDS011;47432;0.000;0.000;2022-09-12T14:16:24;10.33;;;2.30;;
6763;SDS011;47432;0.000;0.000;2022-09-12T14:18:52;13.70;;;3.03;;
6763;SDS011;47432;0.000;0.000;2022-09-12T14:23:58;10.67;;;2.27;;
6763;SDS011;47432;0.000;0.000;2022-09-12T14:26:28;11.33;;;2.03;;
6763;SDS011;47432;0.000;0.000;2022-09-12T14:28:57;9.40;;;1.90;;
6763;SDS011;47432;0.000;0.000;2022-09-12T14:31:31;10.80;;;2.50;;
6763;SDS011;47432;0.000;0.000;2022-09-12T14:34:11;11.30;;;2.93;;
6763;SDS011;47432;0.000;0.000;2022-09-12T14:39:21;10.23;;;2.30;;
6763;SDS011;47432;0.000;0.000;2022-09-12T14:42:03;9.10;;;1.80;;
6763;SDS011;47432;0.000;0.000;2022-09-12T14:44:38;10.20;;;2.10;;
6763;SDS011;47432;0.000;0.000;2022-09-12T14:47:17;9.40;;;1.73;;
6763;SDS011;47432;0.000;0.000;2022-09-12T14:49:47;9.07;;;1.83;;
6763;SDS011;47432;0.000;0.000;2022-09-12T14:52:29;9.80;;;2.23;;
6763;SDS011;47432;0.000;0.000;2022-09-12T14:55:00;11.93;;;1.87;;
6763;SDS011;47432;0.000;0.000;2022-09-12T14:57:31;10.83;;;2.40;;
6763;SDS011;47432;0.000;0.000;2022-09-12T15:02:45;9.83;;;1.77;;
6763;SDS011;47432;0.000;0.000;2022-09-12T15:05:15;8.40;;;1.60;;
6763;SDS011;47432;0.000;0.000;2022-09-12T15:07:53;9.60;;;2.07;;
6763;SDS011;47432;0.000;0.000;2022-09-12T15:10:28;9.80;;;2.10;;
6763;SDS011;47432;0.000;0.000;2022-09-12T15:13:09;9.93;;;2.23;;
6763;SDS011;47432;0.000;0.000;2022-09-12T15:15:50;9.37;;;2.23;;
6763;SDS011;47432;0.000;0.000;2022-09-12T15:18:19;12.30;;;2.03;;
6763;SDS011;47432;0.000;0.000;2022-09-12T15:20:46;10.27;;;2.03;;
6763;SDS011;47432;0.000;0.000;2022-09-12T15:25:47;10.47;;;2.30;;
6763;SDS011;47432;0.000;0.000;2022-09-12T15:28:18;10.23;;;2.10;;
6763;SDS011;47432;0.000;0.000;2022-09-12T15:30:45;10.90;;;2.10;;
6763;SDS011;47432;0.000;0.000;2022-09-12T15:33:13;10.53;;;2.90;;
6763;SDS011;47432;0.000;0.000;2022-09-12T15:35:39;9.20;;;1.93;;
6763;SDS011;47432;0.000;0.000;2022-09-12T15:38:05;11.73;;;3.10;;
6763;SDS011;47432;0.000;0.000;2022-09-12T15:40:31;10.20;;;2.63;;
6763;SDS011;47432;0.000;0.000;2022-09-12T15:42:56;10.23;;;2.60;;
6763;SDS011;47432;0.000;0.000;2022-09-12T15:45:25;10.30;;;2.47;;
6763;SDS011;47432;0.000;0.000;2022-09-12T15:47:52;9.53;;;2.23;;
6763;SDS011;47432;0.000;0.000;2022-09-12T15:50:18;10.77;;;2.77;;
6763;SDS011;47432;0.000;0.000;2022-09-12T15:52:44;15.60;;;4.40;;
6763;SDS011;47432;0.000;0.000;2022-09-12T15:55:20;10.30;;;2.70;;
6763;SDS011;47432;0.000;0.000;2022-09-12T15:57:49;9.67;;;2.60;;
6763;SDS011;47432;0.000;0.000;2022-09-12T16:00:15;10.30;;;2.60;;
6763;SDS011;47432;0.000;0.000;2022-09-12T16:02:42;11.30;;;2.63;;
6763;SDS011;47432;0.000;0.000;2022-09-12T16:05:12;9.77;;;2.27;;
6763;SDS011;47432;0.000;0.000;2022-09-12T16:07:46;10.53;;;2.50;;
6763;SDS011;47432;0.000;0.000;2022-09-12T16:10:17;10.93;;;3.07;;
6763;SDS011;47432;0.000;0.000;2022-09-12T16:12:47;12.00;;;3.63;;
6763;SDS011;47432;0.000;0.000;2022-09-12T16:15:18;9.67;;;2.10;;
6763;SDS011;47432;0.000;0.000;2022-09-12T16:17:45;11.23;;;2.97;;
6763;SDS011;47432;0.000;0.000;2022-09-12T16:20:12;10.20;;;2.80;;
6763;SDS011;47432;0.000;0.000;2022-09-12T16:22:40;11.70;;;3.10;;
6763;SDS011;47432;0.000;0.000;2022-09-12T16:25:09;12.80;;;3.00;;
6763;SDS011;47432;0.000;0.000;2022-09-12T16:27:35;13.87;;;4.00;;
6763;SDS011;47432;0.000;0.000;2022-09-12T16:30:02;13.57;;;3.97;;
6763;SDS011;47432;0.000;0.000;2022-09-12T16:32:30;12.70;;;3.70;;
6763;SDS011;47432;0.000;0.000;2022-09-12T16:34:56;11.67;;;3.10;;
6763;SDS011;47432;0.000;0.000;2022-09-12T16:37:22;13.83;;;4.03;;
6763;SDS011;47432;0.000;0.000;2022-09-12T16:39:50;15.40;;;5.03;;
6763;SDS011;47432;0.000;0.000;2022-09-12T16:42:17;13.50;;;3.80;;
6763;SDS011;47432;0.000;0.000;2022-09-12T16:44:44;10.63;;;2.63;;
6763;SDS011;47432;0.000;0.000;2022-09-12T16:47:12;17.47;;;5.37;;
6763;SDS011;47432;0.000;0.000;2022-09-12T16:49:38;14.23;;;4.00;;
6763;SDS011;47432;0.000;0.000;2022-09-12T16:52:04;17.27;;;4.73;;
6763;SDS011;47432;0.000;0.000;2022-09-12T16:54:31;10.93;;;2.70;;
6763;SDS011;47432;0.000;0.000;2022-09-12T16:56:56;13.17;;;3.40;;
6763;SDS011;47432;0.000;0.000;2022-09-12T16:59:22;19.77;;;5.87;;
6763;SDS011;47432;0.000;0.000;2022-09-12T17:01:48;12.67;;;3.00;;
6763;SDS011;47432;0.000;0.000;2022-09-12T17:04:14;13.80;;;4.00;;
6763;SDS011;47432;0.000;0.000;2022-09-12T17:06:40;15.93;;;4.60;;
6763;SDS011;47432;0.000;0.000;2022-09-12T17:09:07;14.00;;;3.90;;
6763;SDS011;47432;0.000;0.000;2022-09-12T17:11:35;13.40;;;3.33;;
6763;SDS011;47432;0.000;0.000;2022-09-12T17:14:02;17.50;;;5.37;;
6763;SDS011;47432;0.000;0.000;2022-09-12T17:16:32;14.30;;;3.67;;
6763;SDS011;47432;0.000;0.000;2022-09-12T17:18:59;13.07;;;3.17;;
6763;SDS011;47432;0.000;0.000;2022-09-12T17:21:25;13.93;;;3.93;;
6763;SDS011;47432;0.000;0.000;2022-09-12T17:23:51;16.50;;;4.90;;
6763;SDS011;47432;0.000;0.000;2022-09-12T17:26:18;15.63;;;4.43;;
6763;SDS011;47432;0.000;0.000;2022-09-12T17:28:44;13.10;;;3.67;;
6763;SDS011;47432;0.000;0.000;2022-09-12T17:31:11;14.00;;;3.93;;
6763;SDS011;47432;0.000;0.000;2022-09-12T17:33:38;12.53;;;3.50;;
6763;SDS011;47432;0.000;0.000;2022-09-12T17:36:05;11.00;;;3.00;;
6763;SDS011;47432;0.000;0.000;2022-09-12T17:38:33;13.37;;;3.60;;
6763;SDS011;47432;0.000;0.000;2022-09-12T17:41:03;13.10;;;3.40;;